Aérodrome :
LOGIN :

S'inscrire | Disclaimer

   EN    FR    IT 

 










Légende :    VFR   VFR Marginal   IFR   IFR Intensif   IFR Très Intensif
Visi : 
Plafond : 
>= 8 km
>= 3000ft
5 à 8 km
1000 à 3000 ft
1500m à 5 km
500 à 1000 ft
800 à 1500m
200 à 500 ft
< 800m
< 200 ft
Symboles :   Orages  Brouillard  Fortes neiges  Fortes précipitations  Vent > 20 kt
SIGMETs :   Divers  Orages  Givrage  Turbulence  Onde Orograph.  Cendres Volcan.







- Altitude de l'aérodrome : 306 ft
- Code IATA : EMA
- Voir les cartes d'approche


EGNX - Nottingham East Midlands

DERNIER METAR :
  • 222020Z 17010KT 9999 -RA FEW012 BKN048 13/11 Q1020

METARs EXPIRÉS :
  • 221950Z 17009KT CAVOK 14/11 Q1020
  • 221920Z 17010KT 9999 BKN047 13/11 Q1019
  • 221850Z 17008KT 9999 FEW027 BKN048 13/11 Q1019
  • 221820Z 16007KT 120V190 9999 SCT019 13/11 Q1019
  • 221750Z 16006KT 140V220 9999 FEW019 BKN045 14/11 Q1019

TAF TAF EGNX
Valide du 22 à 18h jusqu'au 23 à 18h UTC


221708Z 2218/2318 20010KT 9999 SCT025
TEMPO 2218/2221 7000 RA
TEMPO 2221/2310 8000 RADZ BKN008
PROB30
TEMPO 2223/2310 4000 BR BKN004
PROB30
TEMPO 2306/2316 7000 BKN008
ATIS : +44 1332 852 852 (ext 3201)
Pas de NOTAMs connus pour ce terrain.



MET'MAP, la Météo Aéronautique d'un coup d'oeil ! - Copyright ORBIFLY Décembre 2007 - Disclaimer

ORBIFLY MET'MAP TEAM :

Programmation & Développement : Alexandra Zaïnal
Conception & Développement : Baudouin d'Aumeries
Co-Programmation & Développement : Marc-Olivier Méhu
Soutien technique & logistique : Manuel Goepfert

Contact : metmap@orbifly.com




SOURCES & CREDITS :

   NOAA